sensor_id;sensor_type;location;lat;lon;timestamp;P1;durP1;ratioP1;P2;durP2;ratioP2
20138;SDS011;10230;51.502;10.800;2022-08-27T00:00:00;12.02;;;10.73;;
20138;SDS011;10230;51.502;10.800;2022-08-27T00:02:28;13.23;;;11.40;;
20138;SDS011;10230;51.502;10.800;2022-08-27T00:04:54;14.73;;;11.73;;
20138;SDS011;10230;51.502;10.800;2022-08-27T00:07:20;14.88;;;13.38;;
20138;SDS011;10230;51.502;10.800;2022-08-27T00:09:46;13.93;;;12.57;;
20138;SDS011;10230;51.502;10.800;2022-08-27T00:12:11;14.60;;;13.10;;
20138;SDS011;10230;51.502;10.800;2022-08-27T00:14:37;14.60;;;13.30;;
20138;SDS011;10230;51.502;10.800;2022-08-27T00:17:04;17.90;;;14.80;;
20138;SDS011;10230;51.502;10.800;2022-08-27T00:19:31;16.27;;;14.20;;
20138;SDS011;10230;51.502;10.800;2022-08-27T00:21:57;17.27;;;14.68;;
20138;SDS011;10230;51.502;10.800;2022-08-27T00:24:22;15.20;;;13.65;;
20138;SDS011;10230;51.502;10.800;2022-08-27T00:26:49;17.23;;;14.13;;
20138;SDS011;10230;51.502;10.800;2022-08-27T00:29:17;15.80;;;14.07;;
20138;SDS011;10230;51.502;10.800;2022-08-27T00:31:43;13.73;;;12.43;;
20138;SDS011;10230;51.502;10.800;2022-08-27T00:34:09;16.85;;;14.02;;
20138;SDS011;10230;51.502;10.800;2022-08-27T00:36:35;14.90;;;13.30;;
20138;SDS011;10230;51.502;10.800;2022-08-27T00:39:03;16.63;;;14.25;;
20138;SDS011;10230;51.502;10.800;2022-08-27T00:41:29;17.65;;;14.07;;
20138;SDS011;10230;51.502;10.800;2022-08-27T00:43:56;18.90;;;16.83;;
20138;SDS011;10230;51.502;10.800;2022-08-27T00:46:27;16.88;;;15.30;;
20138;SDS011;10230;51.502;10.800;2022-08-27T00:49:07;18.42;;;16.35;;
20138;SDS011;10230;51.502;10.800;2022-08-27T00:51:42;18.98;;;17.02;;
20138;SDS011;10230;51.502;10.800;2022-08-27T00:54:11;20.13;;;16.50;;
20138;SDS011;10230;51.502;10.800;2022-08-27T00:56:39;17.38;;;15.82;;
20138;SDS011;10230;51.502;10.800;2022-08-27T00:59:12;21.40;;;19.15;;
20138;SDS011;10230;51.502;10.800;2022-08-27T01:01:42;20.45;;;18.27;;
20138;SDS011;10230;51.502;10.800;2022-08-27T01:04:28;21.38;;;19.20;;
20138;SDS011;10230;51.502;10.800;2022-08-27T01:06:56;19.77;;;17.77;;
20138;SDS011;10230;51.502;10.800;2022-08-27T01:09:22;20.08;;;17.63;;
20138;SDS011;10230;51.502;10.800;2022-08-27T01:11:49;19.90;;;17.90;;
20138;SDS011;10230;51.502;10.800;2022-08-27T01:14:15;18.20;;;16.45;;
20138;SDS011;10230;51.502;10.800;2022-08-27T01:16:45;19.38;;;17.48;;
20138;SDS011;10230;51.502;10.800;2022-08-27T01:19:29;18.70;;;16.98;;
20138;SDS011;10230;51.502;10.800;2022-08-27T01:22:06;20.05;;;18.05;;
20138;SDS011;10230;51.502;10.800;2022-08-27T01:24:41;20.70;;;18.75;;
20138;SDS011;10230;51.502;10.800;2022-08-27T01:27:10;20.60;;;18.60;;
20138;SDS011;10230;51.502;10.800;2022-08-27T01:29:37;21.48;;;19.23;;
20138;SDS011;10230;51.502;10.800;2022-08-27T01:32:05;22.05;;;19.90;;
20138;SDS011;10230;51.502;10.800;2022-08-27T01:34:32;23.42;;;21.08;;
20138;SDS011;10230;51.502;10.800;2022-08-27T01:36:58;24.63;;;22.13;;
20138;SDS011;10230;51.502;10.800;2022-08-27T01:39:24;24.83;;;21.70;;
20138;SDS011;10230;51.502;10.800;2022-08-27T01:41:50;24.55;;;22.05;;
20138;SDS011;10230;51.502;10.800;2022-08-27T01:44:16;21.27;;;19.27;;
20138;SDS011;10230;51.502;10.800;2022-08-27T01:46:42;24.50;;;21.50;;
20138;SDS011;10230;51.502;10.800;2022-08-27T01:49:08;24.05;;;21.58;;
20138;SDS011;10230;51.502;10.800;2022-08-27T01:51:34;24.92;;;21.20;;
20138;SDS011;10230;51.502;10.800;2022-08-27T01:54:01;26.13;;;23.42;;
20138;SDS011;10230;51.502;10.800;2022-08-27T01:56:27;24.70;;;21.98;;
20138;SDS011;10230;51.502;10.800;2022-08-27T01:58:53;23.70;;;21.20;;
20138;SDS011;10230;51.502;10.800;2022-08-27T02:01:18;23.38;;;21.02;;
20138;SDS011;10230;51.502;10.800;2022-08-27T02:03:44;21.42;;;19.33;;
20138;SDS011;10230;51.502;10.800;2022-08-27T02:06:12;23.02;;;20.73;;
20138;SDS011;10230;51.502;10.800;2022-08-27T02:08:39;20.83;;;18.60;;
20138;SDS011;10230;51.502;10.800;2022-08-27T02:11:05;22.92;;;20.45;;
20138;SDS011;10230;51.502;10.800;2022-08-27T02:13:32;22.02;;;19.83;;
20138;SDS011;10230;51.502;10.800;2022-08-27T02:15:58;23.80;;;21.35;;
20138;SDS011;10230;51.502;10.800;2022-08-27T02:18:24;23.27;;;20.85;;
20138;SDS011;10230;51.502;10.800;2022-08-27T02:20:49;21.85;;;19.08;;
20138;SDS011;10230;51.502;10.800;2022-08-27T02:23:15;21.52;;;19.10;;
20138;SDS011;10230;51.502;10.800;2022-08-27T02:25:42;18.10;;;16.48;;
20138;SDS011;10230;51.502;10.800;2022-08-27T02:28:09;17.20;;;15.30;;
20138;SDS011;10230;51.502;10.800;2022-08-27T02:30:34;16.67;;;14.75;;
20138;SDS011;10230;51.502;10.800;2022-08-27T02:33:01;13.93;;;12.57;;
20138;SDS011;10230;51.502;10.800;2022-08-27T02:35:29;13.35;;;11.80;;
20138;SDS011;10230;51.502;10.800;2022-08-27T02:37:57;12.50;;;11.27;;
20138;SDS011;10230;51.502;10.800;2022-08-27T02:40:23;13.15;;;11.45;;
20138;SDS011;10230;51.502;10.800;2022-08-27T02:42:49;13.90;;;11.75;;
20138;SDS011;10230;51.502;10.800;2022-08-27T02:45:15;13.13;;;11.07;;
20138;SDS011;10230;51.502;10.800;2022-08-27T02:47:41;16.40;;;11.68;;
20138;SDS011;10230;51.502;10.800;2022-08-27T02:50:08;13.23;;;11.82;;
20138;SDS011;10230;51.502;10.800;2022-08-27T02:52:34;13.32;;;11.60;;
20138;SDS011;10230;51.502;10.800;2022-08-27T02:55:00;13.38;;;12.15;;
20138;SDS011;10230;51.502;10.800;2022-08-27T02:57:26;16.23;;;12.80;;
20138;SDS011;10230;51.502;10.800;2022-08-27T02:59:52;13.65;;;12.25;;
20138;SDS011;10230;51.502;10.800;2022-08-27T03:02:18;13.13;;;11.80;;
20138;SDS011;10230;51.502;10.800;2022-08-27T03:04:45;13.82;;;12.43;;
20138;SDS011;10230;51.502;10.800;2022-08-27T03:07:11;15.35;;;12.50;;
20138;SDS011;10230;51.502;10.800;2022-08-27T03:09:37;13.38;;;11.02;;
20138;SDS011;10230;51.502;10.800;2022-08-27T03:12:03;11.15;;;10.15;;
20138;SDS011;10230;51.502;10.800;2022-08-27T03:14:29;10.70;;;9.18;;
20138;SDS011;10230;51.502;10.800;2022-08-27T03:16:55;12.63;;;10.98;;
20138;SDS011;10230;51.502;10.800;2022-08-27T03:19:41;11.48;;;10.05;;
20138;SDS011;10230;51.502;10.800;2022-08-27T03:22:07;13.82;;;11.77;;
20138;SDS011;10230;51.502;10.800;2022-08-27T03:24:34;14.43;;;10.35;;
20138;SDS011;10230;51.502;10.800;2022-08-27T03:27:00;10.73;;;9.68;;
20138;SDS011;10230;51.502;10.800;2022-08-27T03:29:26;11.38;;;10.38;;
20138;SDS011;10230;51.502;10.800;2022-08-27T03:31:52;12.82;;;11.50;;
20138;SDS011;10230;51.502;10.800;2022-08-27T03:34:19;11.23;;;10.02;;
20138;SDS011;10230;51.502;10.800;2022-08-27T03:36:45;14.30;;;10.30;;
20138;SDS011;10230;51.502;10.800;2022-08-27T03:39:12;11.30;;;10.25;;
20138;SDS011;10230;51.502;10.800;2022-08-27T03:41:38;11.23;;;9.95;;
20138;SDS011;10230;51.502;10.800;2022-08-27T03:44:04;13.82;;;10.50;;
20138;SDS011;10230;51.502;10.800;2022-08-27T03:46:30;11.80;;;10.45;;
20138;SDS011;10230;51.502;10.800;2022-08-27T03:48:56;10.82;;;9.77;;
20138;SDS011;10230;51.502;10.800;2022-08-27T03:51:22;10.57;;;9.48;;
20138;SDS011;10230;51.502;10.800;2022-08-27T03:53:47;11.10;;;9.93;;
20138;SDS011;10230;51.502;10.800;2022-08-27T03:56:13;11.32;;;10.18;;
20138;SDS011;10230;51.502;10.800;2022-08-27T03:58:40;12.73;;;9.98;;
20138;SDS011;10230;51.502;10.800;2022-08-27T04:01:06;11.93;;;10.65;;
20138;SDS011;10230;51.502;10.800;2022-08-27T04:03:32;13.90;;;10.25;;
20138;SDS011;10230;51.502;10.800;2022-08-27T04:05:58;12.77;;;10.15;;
20138;SDS011;10230;51.502;10.800;2022-08-27T04:08:24;15.77;;;11.25;;
20138;SDS011;10230;51.502;10.800;2022-08-27T04:10:51;13.10;;;11.45;;
20138;SDS011;10230;51.502;10.800;2022-08-27T04:13:18;16.73;;;10.90;;
20138;SDS011;10230;51.502;10.800;2022-08-27T04:15:44;14.48;;;11.15;;
20138;SDS011;10230;51.502;10.800;2022-08-27T04:18:14;14.30;;;11.55;;
20138;SDS011;10230;51.502;10.800;2022-08-27T04:20:41;17.08;;;14.27;;
20138;SDS011;10230;51.502;10.800;2022-08-27T04:23:07;14.25;;;12.27;;
20138;SDS011;10230;51.502;10.800;2022-08-27T04:25:33;15.50;;;12.07;;
20138;SDS011;10230;51.502;10.800;2022-08-27T04:28:02;15.77;;;12.07;;
20138;SDS011;10230;51.502;10.800;2022-08-27T04:30:27;13.35;;;10.80;;
20138;SDS011;10230;51.502;10.800;2022-08-27T04:32:53;16.20;;;11.82;;
20138;SDS011;10230;51.502;10.800;2022-08-27T04:35:19;14.80;;;10.80;;
20138;SDS011;10230;51.502;10.800;2022-08-27T04:37:45;13.02;;;10.50;;
20138;SDS011;10230;51.502;10.800;2022-08-27T04:40:11;13.05;;;10.90;;
20138;SDS011;10230;51.502;10.800;2022-08-27T04:42:37;13.23;;;11.02;;
20138;SDS011;10230;51.502;10.800;2022-08-27T04:45:03;14.07;;;11.02;;
20138;SDS011;10230;51.502;10.800;2022-08-27T04:47:29;15.63;;;11.82;;
20138;SDS011;10230;51.502;10.800;2022-08-27T04:49:55;12.52;;;10.85;;
20138;SDS011;10230;51.502;10.800;2022-08-27T04:52:20;11.75;;;10.30;;
20138;SDS011;10230;51.502;10.800;2022-08-27T04:54:46;10.13;;;9.13;;
20138;SDS011;10230;51.502;10.800;2022-08-27T04:57:12;11.43;;;9.55;;
20138;SDS011;10230;51.502;10.800;2022-08-27T04:59:37;9.80;;;8.40;;
20138;SDS011;10230;51.502;10.800;2022-08-27T05:02:04;10.88;;;8.80;;
20138;SDS011;10230;51.502;10.800;2022-08-27T05:04:33;10.30;;;8.95;;
20138;SDS011;10230;51.502;10.800;2022-08-27T05:07:00;12.02;;;9.48;;
20138;SDS011;10230;51.502;10.800;2022-08-27T05:09:26;10.80;;;8.98;;
20138;SDS011;10230;51.502;10.800;2022-08-27T05:11:52;10.57;;;8.45;;
20138;SDS011;10230;51.502;10.800;2022-08-27T05:14:19;12.07;;;9.35;;
20138;SDS011;10230;51.502;10.800;2022-08-27T05:16:46;11.45;;;10.18;;
20138;SDS011;10230;51.502;10.800;2022-08-27T05:19:12;10.98;;;9.73;;
20138;SDS011;10230;51.502;10.800;2022-08-27T05:21:41;11.75;;;10.55;;
20138;SDS011;10230;51.502;10.800;2022-08-27T05:24:12;11.77;;;9.88;;
20138;SDS011;10230;51.502;10.800;2022-08-27T05:26:38;11.07;;;8.73;;
20138;SDS011;10230;51.502;10.800;2022-08-27T05:29:04;9.18;;;7.95;;
20138;SDS011;10230;51.502;10.800;2022-08-27T05:31:30;10.80;;;8.05;;
20138;SDS011;10230;51.502;10.800;2022-08-27T05:33:56;9.68;;;7.60;;
20138;SDS011;10230;51.502;10.800;2022-08-27T05:36:24;7.97;;;7.25;;
20138;SDS011;10230;51.502;10.800;2022-08-27T05:38:50;11.60;;;9.55;;
20138;SDS011;10230;51.502;10.800;2022-08-27T05:41:19;9.20;;;8.30;;
20138;SDS011;10230;51.502;10.800;2022-08-27T05:43:46;9.77;;;8.27;;
20138;SDS011;10230;51.502;10.800;2022-08-27T05:46:13;8.40;;;7.60;;
20138;SDS011;10230;51.502;10.800;2022-08-27T05:48:40;9.27;;;8.02;;
20138;SDS011;10230;51.502;10.800;2022-08-27T05:51:10;11.40;;;7.97;;
20138;SDS011;10230;51.502;10.800;2022-08-27T05:53:37;7.97;;;7.00;;
20138;SDS011;10230;51.502;10.800;2022-08-27T05:56:03;9.05;;;8.20;;
20138;SDS011;10230;51.502;10.800;2022-08-27T05:58:30;8.60;;;6.90;;
20138;SDS011;10230;51.502;10.800;2022-08-27T06:01:15;9.45;;;7.68;;
20138;SDS011;10230;51.502;10.800;2022-08-27T06:03:42;9.00;;;7.35;;
20138;SDS011;10230;51.502;10.800;2022-08-27T06:06:10;9.30;;;8.00;;
20138;SDS011;10230;51.502;10.800;2022-08-27T06:08:36;8.73;;;7.85;;
20138;SDS011;10230;51.502;10.800;2022-08-27T06:11:03;10.48;;;9.20;;
20138;SDS011;10230;51.502;10.800;2022-08-27T06:13:30;10.80;;;8.20;;
20138;SDS011;10230;51.502;10.800;2022-08-27T06:16:15;9.43;;;8.32;;
20138;SDS011;10230;51.502;10.800;2022-08-27T06:18:43;11.35;;;8.65;;
20138;SDS011;10230;51.502;10.800;2022-08-27T06:21:09;13.70;;;9.73;;
20138;SDS011;10230;51.502;10.800;2022-08-27T06:23:36;12.02;;;9.07;;
20138;SDS011;10230;51.502;10.800;2022-08-27T06:26:06;11.75;;;9.32;;
20138;SDS011;10230;51.502;10.800;2022-08-27T06:28:32;13.95;;;9.48;;
20138;SDS011;10230;51.502;10.800;2022-08-27T06:31:06;13.00;;;10.02;;
20138;SDS011;10230;51.502;10.800;2022-08-27T06:33:33;11.70;;;9.10;;
20138;SDS011;10230;51.502;10.800;2022-08-27T06:35:59;12.85;;;9.35;;
20138;SDS011;10230;51.502;10.800;2022-08-27T06:38:26;10.23;;;8.63;;
20138;SDS011;10230;51.502;10.800;2022-08-27T06:40:52;12.00;;;8.93;;
20138;SDS011;10230;51.502;10.800;2022-08-27T06:43:19;10.85;;;7.90;;
20138;SDS011;10230;51.502;10.800;2022-08-27T06:45:46;10.20;;;7.38;;
20138;SDS011;10230;51.502;10.800;2022-08-27T06:48:12;8.80;;;7.07;;
20138;SDS011;10230;51.502;10.800;2022-08-27T06:50:39;7.63;;;6.45;;
20138;SDS011;10230;51.502;10.800;2022-08-27T06:53:05;10.02;;;7.47;;
20138;SDS011;10230;51.502;10.800;2022-08-27T06:55:31;7.50;;;6.35;;
20138;SDS011;10230;51.502;10.800;2022-08-27T06:57:58;6.38;;;5.75;;
20138;SDS011;10230;51.502;10.800;2022-08-27T07:00:24;10.85;;;7.53;;
20138;SDS011;10230;51.502;10.800;2022-08-27T07:02:50;9.57;;;6.63;;
20138;SDS011;10230;51.502;10.800;2022-08-27T07:05:17;8.27;;;6.85;;
20138;SDS011;10230;51.502;10.800;2022-08-27T07:07:43;6.88;;;6.18;;
20138;SDS011;10230;51.502;10.800;2022-08-27T07:10:09;9.10;;;6.47;;
20138;SDS011;10230;51.502;10.800;2022-08-27T07:12:35;8.70;;;6.40;;
20138;SDS011;10230;51.502;10.800;2022-08-27T07:15:01;7.28;;;6.50;;
20138;SDS011;10230;51.502;10.800;2022-08-27T07:17:28;7.22;;;6.53;;
20138;SDS011;10230;51.502;10.800;2022-08-27T07:19:54;6.93;;;6.10;;
20138;SDS011;10230;51.502;10.800;2022-08-27T07:22:20;7.45;;;6.57;;
20138;SDS011;10230;51.502;10.800;2022-08-27T07:24:46;7.05;;;6.28;;
20138;SDS011;10230;51.502;10.800;2022-08-27T07:27:12;11.80;;;6.28;;
20138;SDS011;10230;51.502;10.800;2022-08-27T07:29:38;8.13;;;5.78;;
20138;SDS011;10230;51.502;10.800;2022-08-27T07:32:05;7.30;;;5.32;;
20138;SDS011;10230;51.502;10.800;2022-08-27T07:34:31;8.52;;;6.38;;
20138;SDS011;10230;51.502;10.800;2022-08-27T07:36:57;6.38;;;5.30;;
20138;SDS011;10230;51.502;10.800;2022-08-27T07:39:23;7.82;;;5.10;;
20138;SDS011;10230;51.502;10.800;2022-08-27T07:41:49;6.30;;;5.13;;
20138;SDS011;10230;51.502;10.800;2022-08-27T07:44:33;7.32;;;5.95;;
20138;SDS011;10230;51.502;10.800;2022-08-27T07:47:00;7.20;;;5.90;;
20138;SDS011;10230;51.502;10.800;2022-08-27T07:49:27;7.93;;;5.30;;
20138;SDS011;10230;51.502;10.800;2022-08-27T07:51:53;6.20;;;4.95;;
20138;SDS011;10230;51.502;10.800;2022-08-27T07:54:20;5.90;;;4.85;;
20138;SDS011;10230;51.502;10.800;2022-08-27T07:56:46;6.18;;;5.30;;
20138;SDS011;10230;51.502;10.800;2022-08-27T07:59:12;5.03;;;4.40;;
20138;SDS011;10230;51.502;10.800;2022-08-27T08:01:38;5.53;;;4.22;;
20138;SDS011;10230;51.502;10.800;2022-08-27T08:04:06;4.97;;;3.20;;
20138;SDS011;10230;51.502;10.800;2022-08-27T08:06:34;5.43;;;3.55;;
20138;SDS011;10230;51.502;10.800;2022-08-27T08:09:01;6.13;;;3.53;;
20138;SDS011;10230;51.502;10.800;2022-08-27T08:11:27;4.93;;;3.00;;
20138;SDS011;10230;51.502;10.800;2022-08-27T08:13:53;3.45;;;2.80;;
20138;SDS011;10230;51.502;10.800;2022-08-27T08:16:19;3.65;;;2.90;;
20138;SDS011;10230;51.502;10.800;2022-08-27T08:18:48;3.20;;;2.78;;
20138;SDS011;10230;51.502;10.800;2022-08-27T08:21:14;2.95;;;2.65;;
20138;SDS011;10230;51.502;10.800;2022-08-27T08:23:40;5.10;;;3.30;;
20138;SDS011;10230;51.502;10.800;2022-08-27T08:26:06;4.80;;;3.08;;
20138;SDS011;10230;51.502;10.800;2022-08-27T08:28:33;2.90;;;2.70;;
20138;SDS011;10230;51.502;10.800;2022-08-27T08:30:59;3.45;;;3.10;;
20138;SDS011;10230;51.502;10.800;2022-08-27T08:33:25;4.47;;;3.70;;
20138;SDS011;10230;51.502;10.800;2022-08-27T08:35:52;3.75;;;3.10;;
20138;SDS011;10230;51.502;10.800;2022-08-27T08:38:18;3.30;;;2.95;;
20138;SDS011;10230;51.502;10.800;2022-08-27T08:40:46;3.17;;;2.80;;
20138;SDS011;10230;51.502;10.800;2022-08-27T08:43:33;3.83;;;3.33;;
20138;SDS011;10230;51.502;10.800;2022-08-27T08:46:47;3.78;;;3.47;;
20138;SDS011;10230;51.502;10.800;2022-08-27T08:48:48;4.20;;;3.05;;
20138;SDS011;10230;51.502;10.800;2022-08-27T08:56:19;4.03;;;3.28;;
20138;SDS011;10230;51.502;10.800;2022-08-27T09:01:13;3.70;;;3.40;;
20138;SDS011;10230;51.502;10.800;2022-08-27T09:03:39;4.38;;;3.97;;
20138;SDS011;10230;51.502;10.800;2022-08-27T09:06:13;4.45;;;3.63;;
20138;SDS011;10230;51.502;10.800;2022-08-27T09:08:41;4.57;;;4.13;;
20138;SDS011;10230;51.502;10.800;2022-08-27T09:11:20;3.40;;;3.10;;
20138;SDS011;10230;51.502;10.800;2022-08-27T09:13:51;4.82;;;3.83;;
20138;SDS011;10230;51.502;10.800;2022-08-27T09:16:18;6.43;;;5.82;;
20138;SDS011;10230;51.502;10.800;2022-08-27T09:18:44;5.43;;;4.20;;
20138;SDS011;10230;51.502;10.800;2022-08-27T09:26:22;4.30;;;3.90;;
20138;SDS011;10230;51.502;10.800;2022-08-27T09:28:55;5.13;;;4.25;;
20138;SDS011;10230;51.502;10.800;2022-08-27T09:31:40;5.13;;;4.60;;
20138;SDS011;10230;51.502;10.800;2022-08-27T09:34:06;5.10;;;4.55;;
20138;SDS011;10230;51.502;10.800;2022-08-27T09:36:33;5.20;;;4.30;;
20138;SDS011;10230;51.502;10.800;2022-08-27T09:38:59;5.35;;;4.07;;
20138;SDS011;10230;51.502;10.800;2022-08-27T09:41:29;6.25;;;4.72;;
20138;SDS011;10230;51.502;10.800;2022-08-27T09:44:01;5.07;;;4.57;;
20138;SDS011;10230;51.502;10.800;2022-08-27T09:46:28;6.97;;;4.70;;
20138;SDS011;10230;51.502;10.800;2022-08-27T09:48:55;4.78;;;4.28;;
20138;SDS011;10230;51.502;10.800;2022-08-27T09:51:25;7.72;;;5.40;;
20138;SDS011;10230;51.502;10.800;2022-08-27T09:53:52;6.40;;;4.95;;
20138;SDS011;10230;51.502;10.800;2022-08-27T09:58:59;6.13;;;5.57;;
20138;SDS011;10230;51.502;10.800;2022-08-27T10:01:27;6.93;;;6.20;;
20138;SDS011;10230;51.502;10.800;2022-08-27T10:06:30;10.00;;;6.53;;
20138;SDS011;10230;51.502;10.800;2022-08-27T10:08:58;8.25;;;5.78;;
20138;SDS011;10230;51.502;10.800;2022-08-27T10:11:34;7.28;;;5.70;;
20138;SDS011;10230;51.502;10.800;2022-08-27T10:22:05;7.38;;;5.60;;
20138;SDS011;10230;51.502;10.800;2022-08-27T10:35:21;8.05;;;6.35;;
20138;SDS011;10230;51.502;10.800;2022-08-27T10:50:47;15.32;;;7.20;;
20138;SDS011;10230;51.502;10.800;2022-08-27T10:55:41;9.38;;;7.18;;
20138;SDS011;10230;51.502;10.800;2022-08-27T11:00:56;10.05;;;6.45;;
20138;SDS011;10230;51.502;10.800;2022-08-27T11:05:55;9.50;;;7.70;;
20138;SDS011;10230;51.502;10.800;2022-08-27T11:08:26;7.35;;;5.90;;
20138;SDS011;10230;51.502;10.800;2022-08-27T11:10:54;7.97;;;6.47;;
20138;SDS011;10230;51.502;10.800;2022-08-27T11:15:53;10.52;;;6.90;;
20138;SDS011;10230;51.502;10.800;2022-08-27T11:20:58;7.53;;;5.75;;
20138;SDS011;10230;51.502;10.800;2022-08-27T11:23:29;9.10;;;6.65;;
20138;SDS011;10230;51.502;10.800;2022-08-27T11:26:02;7.25;;;5.25;;
20138;SDS011;10230;51.502;10.800;2022-08-27T11:38:42;7.53;;;6.28;;
20138;SDS011;10230;51.502;10.800;2022-08-27T11:43:38;6.63;;;5.68;;
20138;SDS011;10230;51.502;10.800;2022-08-27T11:46:06;8.02;;;6.20;;
20138;SDS011;10230;51.502;10.800;2022-08-27T11:48:34;5.53;;;5.00;;
20138;SDS011;10230;51.502;10.800;2022-08-27T11:51:05;6.53;;;5.80;;
20138;SDS011;10230;51.502;10.800;2022-08-27T11:53:41;10.25;;;7.53;;
20138;SDS011;10230;51.502;10.800;2022-08-27T11:56:41;9.20;;;6.72;;
20138;SDS011;10230;51.502;10.800;2022-08-27T12:01:57;9.55;;;5.57;;
20138;SDS011;10230;51.502;10.800;2022-08-27T12:04:36;8.23;;;5.18;;
20138;SDS011;10230;51.502;10.800;2022-08-27T12:07:20;6.78;;;5.57;;
20138;SDS011;10230;51.502;10.800;2022-08-27T12:10:05;9.20;;;7.63;;
20138;SDS011;10230;51.502;10.800;2022-08-27T12:15:41;6.07;;;5.47;;
20138;SDS011;10230;51.502;10.800;2022-08-27T12:20:42;6.60;;;3.65;;
20138;SDS011;10230;51.502;10.800;2022-08-27T12:23:16;4.85;;;4.35;;
20138;SDS011;10230;51.502;10.800;2022-08-27T12:26:15;5.05;;;3.83;;
20138;SDS011;10230;51.502;10.800;2022-08-27T12:28:41;3.58;;;3.25;;
20138;SDS011;10230;51.502;10.800;2022-08-27T12:31:07;4.35;;;3.92;;
20138;SDS011;10230;51.502;10.800;2022-08-27T12:33:40;4.55;;;4.00;;
20138;SDS011;10230;51.502;10.800;2022-08-27T12:36:41;5.22;;;4.10;;
20138;SDS011;10230;51.502;10.800;2022-08-27T12:39:00;5.40;;;4.28;;
20138;SDS011;10230;51.502;10.800;2022-08-27T12:41:29;3.60;;;3.28;;
20138;SDS011;10230;51.502;10.800;2022-08-27T12:44:07;5.93;;;3.40;;
20138;SDS011;10230;51.502;10.800;2022-08-27T12:46:44;6.18;;;3.45;;
20138;SDS011;10230;51.502;10.800;2022-08-27T12:49:17;3.33;;;3.00;;
20138;SDS011;10230;51.502;10.800;2022-08-27T12:51:48;3.15;;;2.88;;
20138;SDS011;10230;51.502;10.800;2022-08-27T12:57:20;4.00;;;3.20;;
20138;SDS011;10230;51.502;10.800;2022-08-27T13:05:09;3.90;;;2.97;;
20138;SDS011;10230;51.502;10.800;2022-08-27T13:07:43;5.20;;;2.78;;
20138;SDS011;10230;51.502;10.800;2022-08-27T13:13:06;3.47;;;3.08;;
20138;SDS011;10230;51.502;10.800;2022-08-27T13:15:40;4.95;;;3.38;;
20138;SDS011;10230;51.502;10.800;2022-08-27T13:18:10;5.20;;;3.13;;
20138;SDS011;10230;51.502;10.800;2022-08-27T13:20:36;4.20;;;2.88;;
20138;SDS011;10230;51.502;10.800;2022-08-27T13:23:05;4.13;;;3.33;;
20138;SDS011;10230;51.502;10.800;2022-08-27T13:25:38;4.25;;;3.45;;
20138;SDS011;10230;51.502;10.800;2022-08-27T13:28:07;5.53;;;3.58;;
20138;SDS011;10230;51.502;10.800;2022-08-27T13:30:37;5.75;;;3.30;;
20138;SDS011;10230;51.502;10.800;2022-08-27T13:33:06;5.72;;;3.40;;
20138;SDS011;10230;51.502;10.800;2022-08-27T13:35:43;5.35;;;4.00;;
20138;SDS011;10230;51.502;10.800;2022-08-27T13:38:13;5.32;;;3.83;;
20138;SDS011;10230;51.502;10.800;2022-08-27T13:40:50;6.35;;;3.33;;
20138;SDS011;10230;51.502;10.800;2022-08-27T13:43:41;2.92;;;2.60;;
20138;SDS011;10230;51.502;10.800;2022-08-27T13:46:21;3.45;;;3.15;;
20138;SDS011;10230;51.502;10.800;2022-08-27T13:48:48;4.63;;;3.30;;
20138;SDS011;10230;51.502;10.800;2022-08-27T13:51:15;3.45;;;3.15;;
20138;SDS011;10230;51.502;10.800;2022-08-27T13:53:48;3.10;;;2.80;;
20138;SDS011;10230;51.502;10.800;2022-08-27T13:56:34;4.53;;;3.45;;
20138;SDS011;10230;51.502;10.800;2022-08-27T13:59:11;7.45;;;3.30;;
20138;SDS011;10230;51.502;10.800;2022-08-27T14:01:40;4.00;;;3.60;;
20138;SDS011;10230;51.502;10.800;2022-08-27T14:04:07;4.25;;;3.85;;
20138;SDS011;10230;51.502;10.800;2022-08-27T14:06:42;4.38;;;3.97;;
20138;SDS011;10230;51.502;10.800;2022-08-27T14:09:27;3.40;;;3.10;;
20138;SDS011;10230;51.502;10.800;2022-08-27T14:12:00;4.38;;;3.13;;
20138;SDS011;10230;51.502;10.800;2022-08-27T14:14:27;5.22;;;3.30;;
20138;SDS011;10230;51.502;10.800;2022-08-27T14:16:58;3.15;;;2.70;;
20138;SDS011;10230;51.502;10.800;2022-08-27T14:19:29;4.82;;;3.55;;
20138;SDS011;10230;51.502;10.800;2022-08-27T14:21:55;4.43;;;4.03;;
20138;SDS011;10230;51.502;10.800;2022-08-27T14:24:22;4.80;;;3.35;;
20138;SDS011;10230;51.502;10.800;2022-08-27T14:26:52;4.43;;;2.53;;
20138;SDS011;10230;51.502;10.800;2022-08-27T14:29:18;3.35;;;2.67;;
20138;SDS011;10230;51.502;10.800;2022-08-27T14:31:44;2.95;;;2.65;;
20138;SDS011;10230;51.502;10.800;2022-08-27T14:34:11;3.55;;;3.20;;
20138;SDS011;10230;51.502;10.800;2022-08-27T14:36:38;4.80;;;3.85;;
20138;SDS011;10230;51.502;10.800;2022-08-27T14:39:05;5.43;;;3.80;;
20138;SDS011;10230;51.502;10.800;2022-08-27T14:41:31;5.57;;;3.78;;
20138;SDS011;10230;51.502;10.800;2022-08-27T14:43:58;6.53;;;4.00;;
20138;SDS011;10230;51.502;10.800;2022-08-27T14:46:25;6.60;;;3.97;;
20138;SDS011;10230;51.502;10.800;2022-08-27T14:48:52;7.10;;;4.15;;
20138;SDS011;10230;51.502;10.800;2022-08-27T14:51:21;5.50;;;4.03;;
20138;SDS011;10230;51.502;10.800;2022-08-27T14:53:48;5.90;;;4.82;;
20138;SDS011;10230;51.502;10.800;2022-08-27T14:56:15;5.32;;;3.67;;
20138;SDS011;10230;51.502;10.800;2022-08-27T14:58:41;5.03;;;4.32;;
20138;SDS011;10230;51.502;10.800;2022-08-27T15:01:08;6.20;;;4.55;;
20138;SDS011;10230;51.502;10.800;2022-08-27T15:03:36;5.18;;;4.00;;
20138;SDS011;10230;51.502;10.800;2022-08-27T15:06:02;8.45;;;4.70;;
20138;SDS011;10230;51.502;10.800;2022-08-27T15:08:29;5.93;;;4.30;;
20138;SDS011;10230;51.502;10.800;2022-08-27T15:10:55;9.80;;;4.80;;
20138;SDS011;10230;51.502;10.800;2022-08-27T15:13:22;7.97;;;4.40;;
20138;SDS011;10230;51.502;10.800;2022-08-27T15:15:48;6.47;;;5.47;;
20138;SDS011;10230;51.502;10.800;2022-08-27T15:18:14;6.47;;;4.53;;
20138;SDS011;10230;51.502;10.800;2022-08-27T15:20:40;7.55;;;3.78;;
20138;SDS011;10230;51.502;10.800;2022-08-27T15:23:06;5.07;;;4.00;;
20138;SDS011;10230;51.502;10.800;2022-08-27T15:25:33;8.85;;;4.63;;
20138;SDS011;10230;51.502;10.800;2022-08-27T15:27:59;8.95;;;4.82;;
20138;SDS011;10230;51.502;10.800;2022-08-27T15:30:27;7.18;;;4.85;;
20138;SDS011;10230;51.502;10.800;2022-08-27T15:32:53;8.88;;;4.95;;
20138;SDS011;10230;51.502;10.800;2022-08-27T15:35:21;7.90;;;4.53;;
20138;SDS011;10230;51.502;10.800;2022-08-27T15:37:50;7.70;;;5.10;;
20138;SDS011;10230;51.502;10.800;2022-08-27T15:40:16;7.90;;;5.13;;
20138;SDS011;10230;51.502;10.800;2022-08-27T15:42:43;9.80;;;4.72;;
20138;SDS011;10230;51.502;10.800;2022-08-27T15:45:12;8.05;;;4.65;;
20138;SDS011;10230;51.502;10.800;2022-08-27T15:47:38;7.70;;;4.78;;
20138;SDS011;10230;51.502;10.800;2022-08-27T15:50:04;5.93;;;4.20;;
20138;SDS011;10230;51.502;10.800;2022-08-27T15:52:31;6.65;;;4.50;;
20138;SDS011;10230;51.502;10.800;2022-08-27T15:54:56;7.93;;;4.22;;
20138;SDS011;10230;51.502;10.800;2022-08-27T15:57:22;6.38;;;4.93;;
20138;SDS011;10230;51.502;10.800;2022-08-27T15:59:48;7.60;;;5.47;;
20138;SDS011;10230;51.502;10.800;2022-08-27T16:02:15;6.68;;;4.72;;
20138;SDS011;10230;51.502;10.800;2022-08-27T16:04:44;6.85;;;4.80;;